Main page
METAR-TAF:

METAR-TAF

Airports :

Malden Regional Airport

Malden, Missouri, United States

latitude: 36-35-54N, longitude: 089-59-33W, elevation: 295 ft

Current weather observation

The report was made 28 minutes ago, at 01:15 UTC
Wind 5 mph from the South/Southeast
Temperature 88°F
Humidity 49%
Pressure 29.91 in. Hg
Visibility: 10 miles
Clear sky

METAR: KMAW 250115Z AUTO 16004KT 10SM CLR 31/19 A2991 RMK AO1

Time: 20:43 (01:43 UTC)


TAF: missing

Weather observations and forecasts of more than 4000 airports (METAR and TAF reports).

The available stations are represented by yellow and red dots on the map.

Hover mouse over dot to see the name of the station.

Then click to see weather observations and forecasts.

To change the map : click on the green buttons with a black cross to zoom in, on the green button with a dash to zoom out, or on the green arrows for adjacent maps.


METAR-TAF: